createdAt,value
2023-08-17T00:03:41.407Z,4.50
2023-08-17T00:08:44.826Z,5.10
2023-08-17T00:13:48.165Z,4.77
2023-08-17T00:18:52.630Z,4.60
2023-08-17T00:23:55.770Z,4.70
2023-08-17T00:28:58.910Z,4.70
2023-08-17T00:34:03.387Z,5.53
2023-08-17T00:39:06.899Z,4.43
2023-08-17T00:44:10.105Z,5.00
2023-08-17T00:49:14.928Z,4.97
2023-08-17T00:54:23.332Z,4.73
2023-08-17T00:59:26.648Z,5.20
2023-08-17T01:04:31.202Z,4.70
2023-08-17T01:09:34.626Z,4.93
2023-08-17T01:14:45.597Z,4.70
2023-08-17T01:19:51.766Z,4.77
2023-08-17T01:24:59.246Z,5.07
2023-08-17T01:30:02.431Z,4.77
2023-08-17T01:35:13.781Z,5.47
2023-08-17T01:40:19.721Z,4.80
2023-08-17T01:45:23.026Z,5.37
2023-08-17T01:50:26.172Z,4.77
2023-08-17T01:55:30.860Z,5.57
2023-08-17T02:00:33.980Z,5.07
2023-08-17T02:05:37.138Z,5.17
2023-08-17T02:10:41.657Z,5.00
2023-08-17T02:15:44.980Z,5.00
2023-08-17T02:20:48.119Z,5.20
2023-08-17T02:25:52.628Z,5.23
2023-08-17T02:30:58.320Z,5.63
2023-08-17T02:36:02.525Z,5.27
2023-08-17T02:41:07.115Z,5.00
2023-08-17T02:46:10.798Z,5.47
2023-08-17T02:51:14.025Z,5.47
2023-08-17T02:56:18.619Z,5.67
2023-08-17T03:01:21.886Z,4.47
2023-08-17T03:06:25.127Z,4.87
2023-08-17T03:11:29.821Z,4.63
2023-08-17T03:16:32.986Z,5.30
2023-08-17T03:21:36.413Z,5.00
2023-08-17T03:26:40.948Z,5.30
2023-08-17T03:31:44.046Z,5.47
2023-08-17T03:36:47.191Z,4.90
2023-08-17T03:41:51.668Z,4.40
2023-08-17T03:46:54.794Z,5.13
2023-08-17T03:51:57.926Z,5.83
2023-08-17T03:57:02.433Z,5.17
2023-08-17T04:02:05.669Z,5.60
2023-08-17T04:07:09.553Z,5.30
2023-08-17T04:12:14.037Z,4.77
2023-08-17T04:17:17.311Z,4.67
2023-08-17T04:22:20.488Z,4.80
2023-08-17T04:27:25.228Z,5.10
2023-08-17T04:32:28.586Z,5.27
2023-08-17T04:37:31.760Z,5.40
2023-08-17T04:42:36.300Z,4.37
2023-08-17T04:47:39.661Z,5.43
2023-08-17T04:52:42.898Z,4.80
2023-08-17T04:57:47.477Z,4.80
2023-08-17T05:02:50.717Z,5.20
2023-08-17T05:07:55.188Z,5.63
2023-08-17T05:12:59.796Z,6.17
2023-08-17T05:18:03.038Z,5.87
2023-08-17T05:23:06.393Z,5.50
2023-08-17T05:28:10.907Z,6.30
2023-08-17T05:33:14.079Z,5.93
2023-08-17T05:38:17.252Z,6.10
2023-08-17T05:43:21.758Z,6.53
2023-08-17T05:48:24.973Z,5.87
2023-08-17T05:53:28.078Z,6.13
2023-08-17T05:58:32.745Z,6.83
2023-08-17T06:03:36.018Z,7.53
2023-08-17T06:08:39.181Z,7.33
2023-08-17T06:13:43.639Z,7.63
2023-08-17T06:18:47.136Z,7.67
2023-08-17T06:23:50.532Z,7.33
2023-08-17T06:28:55.030Z,8.90
2023-08-17T06:33:58.458Z,8.80
2023-08-17T06:39:01.798Z,9.13
2023-08-17T06:44:07.786Z,8.43
2023-08-17T06:49:10.928Z,8.10
2023-08-17T06:54:14.052Z,7.80
2023-08-17T06:59:18.529Z,8.00
2023-08-17T07:04:21.744Z,8.30
2023-08-17T07:09:24.965Z,8.17
2023-08-17T07:14:29.505Z,8.43
2023-08-17T07:19:57.741Z,8.33
2023-08-17T07:24:55.755Z,8.80
2023-08-17T07:30:00.258Z,7.83
2023-08-17T07:35:03.373Z,8.30
2023-08-17T07:40:08.161Z,8.03
2023-08-17T07:45:13.605Z,7.70
2023-08-17T07:50:16.771Z,7.97
2023-08-17T07:55:19.996Z,8.13
2023-08-17T08:00:24.543Z,8.00
2023-08-17T08:05:28.612Z,7.63
2023-08-17T08:10:31.740Z,7.57
2023-08-17T08:15:37.046Z,7.80
2023-08-17T08:20:40.571Z,7.73
2023-08-17T08:25:43.707Z,7.87
2023-08-17T08:30:48.286Z,7.43
2023-08-17T08:35:51.436Z,7.10
2023-08-17T08:40:54.545Z,7.93
2023-08-17T08:46:01.883Z,7.80
2023-08-17T08:51:09.913Z,6.73
2023-08-17T08:56:14.418Z,7.57
2023-08-17T09:01:20.075Z,7.20
2023-08-17T09:06:25.244Z,7.23
2023-08-17T09:11:28.371Z,7.07
2023-08-17T09:16:32.912Z,6.70
2023-08-17T09:21:36.210Z,6.93
2023-08-17T09:26:40.855Z,6.50
2023-08-17T09:31:45.824Z,6.53
2023-08-17T09:36:49.378Z,6.83
2023-08-17T09:41:52.510Z,7.10
2023-08-17T09:46:59.828Z,7.03
2023-08-17T09:52:03.728Z,6.20
2023-08-17T09:57:08.025Z,6.57
2023-08-17T10:02:20.662Z,6.17
2023-08-17T10:12:40.731Z,6.00
2023-08-17T10:17:51.224Z,6.30
2023-08-17T10:23:04.630Z,6.33
2023-08-17T10:28:09.043Z,6.20
2023-08-17T10:33:14.074Z,6.03
2023-08-17T10:38:18.700Z,6.10
2023-08-17T10:43:23.509Z,5.90
2023-08-17T10:48:37.552Z,6.00
2023-08-17T10:53:43.950Z,5.43
2023-08-17T10:58:47.186Z,5.60
2023-08-17T11:04:12.404Z,6.00
2023-08-17T11:09:19.748Z,5.80
2023-08-17T11:14:23.015Z,5.77
2023-08-17T11:19:27.663Z,6.00
2023-08-17T11:24:30.977Z,5.87
2023-08-17T11:29:34.371Z,5.63
2023-08-17T11:34:39.467Z,6.17
2023-08-17T11:39:42.606Z,5.73
2023-08-17T11:44:45.784Z,5.60
2023-08-17T11:49:51.675Z,5.83
2023-08-17T11:54:57.122Z,5.77
2023-08-17T12:00:01.678Z,5.90
2023-08-17T12:05:08.033Z,5.70
2023-08-17T12:10:12.707Z,5.80
2023-08-17T12:15:16.236Z,5.87
2023-08-17T12:20:22.117Z,6.07
2023-08-17T12:25:27.070Z,6.00
2023-08-17T12:30:32.762Z,6.10
2023-08-17T12:35:37.405Z,5.60
2023-08-17T12:40:40.595Z,5.90
2023-08-17T12:45:43.765Z,5.87
2023-08-17T12:50:48.268Z,5.47
2023-08-17T12:55:56.257Z,5.73
2023-08-17T13:00:59.505Z,5.70
2023-08-17T13:06:04.127Z,5.53
2023-08-17T13:11:07.338Z,5.70
2023-08-17T13:16:12.288Z,5.63
2023-08-17T13:21:19.177Z,6.30
2023-08-17T13:26:24.611Z,5.60
2023-08-17T13:31:27.826Z,6.10
2023-08-17T13:36:32.391Z,6.00
2023-08-17T13:41:35.498Z,6.23
2023-08-17T13:46:38.834Z,5.87
2023-08-17T13:51:43.405Z,6.00
2023-08-17T13:56:46.545Z,5.63
2023-08-17T14:01:49.771Z,5.80
2023-08-17T14:06:54.345Z,6.33
2023-08-17T14:11:57.503Z,5.80
2023-08-17T14:17:00.845Z,5.77
2023-08-17T14:22:05.527Z,5.90
2023-08-17T14:27:08.624Z,5.73
2023-08-17T14:32:11.895Z,5.87
2023-08-17T14:37:16.369Z,5.50
2023-08-17T14:42:19.478Z,6.00
2023-08-17T14:47:22.571Z,5.87
2023-08-17T14:52:33.703Z,5.93
2023-08-17T14:57:37.125Z,5.83
2023-08-17T15:02:40.291Z,6.03
2023-08-17T15:07:44.891Z,6.07
2023-08-17T15:12:48.018Z,6.40
2023-08-17T15:17:51.174Z,6.00
2023-08-17T15:22:55.705Z,5.90
2023-08-17T15:27:58.799Z,6.30
2023-08-17T15:33:01.931Z,5.57
2023-08-17T15:38:06.600Z,5.87
2023-08-17T15:43:09.698Z,5.40
2023-08-17T15:48:12.953Z,5.70
2023-08-17T15:53:17.489Z,6.37
2023-08-17T15:58:20.614Z,6.17
2023-08-17T16:03:24.526Z,5.80
2023-08-17T16:08:47.325Z,6.67
2023-08-17T16:13:52.108Z,6.00
2023-08-17T16:18:55.405Z,6.00
2023-08-17T16:23:59.887Z,6.33
2023-08-17T16:29:03.089Z,6.03
2023-08-17T16:34:06.263Z,6.47
2023-08-17T16:39:11.278Z,4.77
2023-08-17T16:44:14.402Z,3.60
2023-08-17T16:49:17.553Z,3.13
2023-08-17T16:54:22.037Z,3.00
2023-08-17T16:59:25.452Z,2.90
2023-08-17T17:04:28.570Z,3.17
2023-08-17T17:09:33.090Z,4.70
2023-08-17T17:14:36.217Z,5.33
2023-08-17T17:19:39.310Z,4.83
2023-08-17T17:24:43.793Z,5.00
2023-08-17T17:29:46.910Z,3.73
2023-08-17T17:34:50.078Z,4.17
2023-08-17T17:39:54.552Z,3.77
2023-08-17T17:44:58.499Z,3.87
2023-08-17T17:50:02.038Z,3.90
2023-08-17T17:55:07.663Z,4.00
2023-08-17T18:00:12.387Z,4.10
2023-08-17T18:05:15.523Z,4.10
2023-08-17T18:10:20.032Z,3.17
2023-08-17T18:15:23.293Z,3.37
2023-08-17T18:20:26.691Z,3.47
2023-08-17T18:25:33.081Z,2.90
2023-08-17T18:30:36.394Z,3.00
2023-08-17T18:35:39.523Z,3.03
2023-08-17T18:40:47.000Z,3.30
2023-08-17T18:45:50.134Z,3.10
2023-08-17T18:50:53.420Z,2.93
2023-08-17T18:55:57.900Z,3.13
2023-08-17T19:01:01.009Z,2.80
2023-08-17T19:06:04.333Z,3.00
2023-08-17T19:11:08.962Z,3.33
2023-08-17T19:16:12.100Z,2.90
2023-08-17T19:21:15.243Z,3.23
2023-08-17T19:26:19.781Z,3.40
2023-08-17T19:31:23.057Z,3.07
2023-08-17T19:36:26.261Z,3.27
2023-08-17T19:41:30.833Z,3.07
2023-08-17T19:46:34.064Z,3.10
2023-08-17T19:51:37.622Z,3.10
2023-08-17T19:56:42.710Z,3.50
2023-08-17T20:01:49.382Z,3.13
2023-08-17T20:06:53.028Z,3.00
2023-08-17T20:11:57.533Z,2.57
2023-08-17T20:17:00.845Z,2.73
2023-08-17T20:22:04.192Z,2.80
2023-08-17T20:27:08.797Z,2.53
2023-08-17T20:32:11.903Z,2.63
2023-08-17T20:37:15.008Z,2.80
2023-08-17T20:42:19.510Z,2.60
2023-08-17T20:47:24.488Z,2.73
2023-08-17T20:52:27.797Z,3.13
2023-08-17T20:57:32.444Z,3.20
2023-08-17T21:02:35.621Z,3.10
2023-08-17T21:07:38.784Z,3.10
2023-08-17T21:12:43.721Z,3.20
2023-08-17T21:17:47.814Z,3.10
2023-08-17T21:22:54.948Z,2.80
2023-08-17T21:27:59.421Z,2.80
2023-08-17T21:33:02.583Z,3.13
2023-08-17T21:38:06.343Z,3.20
2023-08-17T21:43:10.903Z,2.90
2023-08-17T21:48:14.060Z,3.00
2023-08-17T21:53:17.556Z,3.03
2023-08-17T21:58:22.145Z,3.63
2023-08-17T22:03:25.368Z,3.10
2023-08-17T22:08:28.699Z,3.53
2023-08-17T22:13:33.186Z,2.93
2023-08-17T22:18:36.317Z,3.73
2023-08-17T22:23:39.467Z,2.90
2023-08-17T22:28:44.001Z,3.13
2023-08-17T22:33:47.121Z,3.10
2023-08-17T22:38:50.238Z,2.80
2023-08-17T22:43:54.740Z,2.63
2023-08-17T22:48:57.927Z,3.53
2023-08-17T22:54:02.100Z,3.77
2023-08-17T22:59:07.417Z,3.60
2023-08-17T23:04:10.561Z,3.17
2023-08-17T23:09:13.785Z,3.70
2023-08-17T23:14:18.389Z,4.17
2023-08-17T23:19:21.499Z,3.10
2023-08-17T23:24:24.748Z,3.47
2023-08-17T23:29:29.251Z,3.37
2023-08-17T23:34:32.376Z,3.30
2023-08-17T23:39:35.494Z,3.47
2023-08-17T23:44:41.406Z,3.10
2023-08-17T23:49:45.730Z,3.80
2023-08-17T23:54:48.917Z,3.40
2023-08-17T23:59:53.541Z,3.80
